sensor_id;sensor_type;location;lat;lon;timestamp;pressure;altitude;pressure_sealevel;temperature;humidity
706;BME280;21234;48.690;9.016;2022-07-23T00:00:06;96193.59;;;22.19;58.27
706;BME280;21234;48.690;9.016;2022-07-23T00:02:33;96192.63;;;22.15;58.07
706;BME280;21234;48.690;9.016;2022-07-23T00:05:01;96179.44;;;22.11;58.18
706;BME280;21234;48.690;9.016;2022-07-23T00:07:28;96187.91;;;22.15;58.91
706;BME280;21234;48.690;9.016;2022-07-23T00:09:55;96179.75;;;22.10;58.28
706;BME280;21234;48.690;9.016;2022-07-23T00:12:22;96187.25;;;22.09;58.12
706;BME280;21234;48.690;9.016;2022-07-23T00:14:48;96185.97;;;22.07;58.36
706;BME280;21234;48.690;9.016;2022-07-23T00:17:15;96186.94;;;22.02;58.25
706;BME280;21234;48.690;9.016;2022-07-23T00:19:42;96200.56;;;21.99;59.31
706;BME280;21234;48.690;9.016;2022-07-23T00:22:10;96189.19;;;22.00;60.47
706;BME280;21234;48.690;9.016;2022-07-23T00:24:37;96181.69;;;21.92;60.05
706;BME280;21234;48.690;9.016;2022-07-23T00:27:04;96195.53;;;21.92;61.92
706;BME280;21234;48.690;9.016;2022-07-23T00:29:31;96184.94;;;21.86;63.93
706;BME280;21234;48.690;9.016;2022-07-23T00:31:57;96193.72;;;21.70;65.65
706;BME280;21234;48.690;9.016;2022-07-23T00:34:24;96174.13;;;21.50;66.70
706;BME280;21234;48.690;9.016;2022-07-23T00:36:51;96178.03;;;21.40;66.89
706;BME280;21234;48.690;9.016;2022-07-23T00:39:20;96166.59;;;21.24;71.72
706;BME280;21234;48.690;9.016;2022-07-23T00:41:48;96120.34;;;21.07;73.36
706;BME280;21234;48.690;9.016;2022-07-23T00:44:16;96133.13;;;20.95;73.62
706;BME280;21234;48.690;9.016;2022-07-23T00:46:45;96153.44;;;20.90;72.47
706;BME280;21234;48.690;9.016;2022-07-23T00:49:12;96148.22;;;20.89;72.91
706;BME280;21234;48.690;9.016;2022-07-23T00:51:39;96155.84;;;20.83;71.65
706;BME280;21234;48.690;9.016;2022-07-23T00:54:06;96173.59;;;20.91;72.34
706;BME280;21234;48.690;9.016;2022-07-23T00:56:34;96164.00;;;20.88;71.20
706;BME280;21234;48.690;9.016;2022-07-23T00:59:01;96154.88;;;20.88;71.06
706;BME280;21234;48.690;9.016;2022-07-23T01:01:28;96151.81;;;20.89;73.12
706;BME280;21234;48.690;9.016;2022-07-23T01:03:55;96152.31;;;20.91;71.06
706;BME280;21234;48.690;9.016;2022-07-23T01:06:21;96146.91;;;20.86;73.49
706;BME280;21234;48.690;9.016;2022-07-23T01:08:48;96141.25;;;20.91;72.31
706;BME280;21234;48.690;9.016;2022-07-23T01:11:15;96130.84;;;20.88;72.53
706;BME280;21234;48.690;9.016;2022-07-23T01:13:44;96134.38;;;20.80;73.72
706;BME280;21234;48.690;9.016;2022-07-23T01:16:11;96141.38;;;20.77;74.52
706;BME280;21234;48.690;9.016;2022-07-23T01:18:38;96138.44;;;20.74;71.25
706;BME280;21234;48.690;9.016;2022-07-23T01:21:05;96139.06;;;20.79;72.47
706;BME280;21234;48.690;9.016;2022-07-23T01:23:33;96119.91;;;20.74;73.14
706;BME280;21234;48.690;9.016;2022-07-23T01:26:01;96118.78;;;20.75;71.46
706;BME280;21234;48.690;9.016;2022-07-23T01:28:27;96086.59;;;20.71;70.90
706;BME280;21234;48.690;9.016;2022-07-23T01:30:54;96063.03;;;20.73;71.90
706;BME280;21234;48.690;9.016;2022-07-23T01:33:21;96070.34;;;20.69;71.87
706;BME280;21234;48.690;9.016;2022-07-23T01:35:47;96140.66;;;20.63;75.29
706;BME280;21234;48.690;9.016;2022-07-23T01:38:14;96087.00;;;20.56;73.58
706;BME280;21234;48.690;9.016;2022-07-23T01:40:42;96099.81;;;20.52;75.43
706;BME280;21234;48.690;9.016;2022-07-23T01:43:09;96091.69;;;20.47;74.37
706;BME280;21234;48.690;9.016;2022-07-23T01:45:36;96109.19;;;20.42;73.51
706;BME280;21234;48.690;9.016;2022-07-23T01:48:03;96110.66;;;20.48;75.44
706;BME280;21234;48.690;9.016;2022-07-23T01:50:30;96111.97;;;20.51;75.56
706;BME280;21234;48.690;9.016;2022-07-23T01:52:57;96113.78;;;20.55;75.87
706;BME280;21234;48.690;9.016;2022-07-23T01:55:23;96104.81;;;20.50;75.59
706;BME280;21234;48.690;9.016;2022-07-23T01:57:52;96100.44;;;20.49;72.86
706;BME280;21234;48.690;9.016;2022-07-23T02:00:18;96113.19;;;20.36;72.34
706;BME280;21234;48.690;9.016;2022-07-23T02:02:45;96117.91;;;20.35;72.89
706;BME280;21234;48.690;9.016;2022-07-23T02:05:12;96128.34;;;20.38;73.08
706;BME280;21234;48.690;9.016;2022-07-23T02:07:39;96140.78;;;20.36;72.34
706;BME280;21234;48.690;9.016;2022-07-23T02:10:06;96142.75;;;20.35;72.87
706;BME280;21234;48.690;9.016;2022-07-23T02:12:33;96137.63;;;20.42;73.52
706;BME280;21234;48.690;9.016;2022-07-23T02:15:01;96148.16;;;20.40;72.83
706;BME280;21234;48.690;9.016;2022-07-23T02:17:28;96140.28;;;20.34;73.83
706;BME280;21234;48.690;9.016;2022-07-23T02:19:55;96140.53;;;20.24;72.64
706;BME280;21234;48.690;9.016;2022-07-23T02:22:22;96150.38;;;20.16;74.13
706;BME280;21234;48.690;9.016;2022-07-23T02:24:48;96169.66;;;20.07;73.66
706;BME280;21234;48.690;9.016;2022-07-23T02:27:15;96168.03;;;20.06;73.95
706;BME280;21234;48.690;9.016;2022-07-23T02:29:42;96169.66;;;20.07;74.30
706;BME280;21234;48.690;9.016;2022-07-23T02:32:10;96185.09;;;20.08;74.16
706;BME280;21234;48.690;9.016;2022-07-23T02:34:37;96195.81;;;20.10;73.61
706;BME280;21234;48.690;9.016;2022-07-23T02:37:05;96189.34;;;20.14;74.62
706;BME280;21234;48.690;9.016;2022-07-23T02:39:33;96205.59;;;20.16;73.85
706;BME280;21234;48.690;9.016;2022-07-23T02:42:00;96208.53;;;20.20;76.49
706;BME280;21234;48.690;9.016;2022-07-23T02:44:27;96204.75;;;20.16;75.27
706;BME280;21234;48.690;9.016;2022-07-23T02:46:54;96203.84;;;20.20;73.34
706;BME280;21234;48.690;9.016;2022-07-23T02:49:22;96206.91;;;20.19;74.28
706;BME280;21234;48.690;9.016;2022-07-23T02:51:48;96214.50;;;20.13;75.42
706;BME280;21234;48.690;9.016;2022-07-23T02:54:15;96216.25;;;20.09;76.31
706;BME280;21234;48.690;9.016;2022-07-23T02:56:42;96217.69;;;20.06;77.17
706;BME280;21234;48.690;9.016;2022-07-23T02:59:09;96222.41;;;20.06;77.96
706;BME280;21234;48.690;9.016;2022-07-23T03:01:36;96222.91;;;20.08;76.69
706;BME280;21234;48.690;9.016;2022-07-23T03:04:03;96223.84;;;20.03;75.96
706;BME280;21234;48.690;9.016;2022-07-23T03:06:31;96230.28;;;19.99;76.57
706;BME280;21234;48.690;9.016;2022-07-23T03:08:58;96230.09;;;19.95;75.01
706;BME280;21234;48.690;9.016;2022-07-23T03:11:24;96228.16;;;19.96;75.08
706;BME280;21234;48.690;9.016;2022-07-23T03:13:51;96225.28;;;20.01;78.21
706;BME280;21234;48.690;9.016;2022-07-23T03:16:18;96218.44;;;19.98;78.61
706;BME280;21234;48.690;9.016;2022-07-23T03:18:44;96216.81;;;19.97;77.68
706;BME280;21234;48.690;9.016;2022-07-23T03:21:11;96219.44;;;20.02;76.72
706;BME280;21234;48.690;9.016;2022-07-23T03:23:39;96213.13;;;20.02;75.37
706;BME280;21234;48.690;9.016;2022-07-23T03:26:06;96218.94;;;20.00;74.91
706;BME280;21234;48.690;9.016;2022-07-23T03:28:33;96210.97;;;19.99;74.74
706;BME280;21234;48.690;9.016;2022-07-23T03:30:59;96208.41;;;20.02;75.96
706;BME280;21234;48.690;9.016;2022-07-23T03:33:26;96211.47;;;20.01;74.94
706;BME280;21234;48.690;9.016;2022-07-23T03:35:53;96212.72;;;19.95;74.14
706;BME280;21234;48.690;9.016;2022-07-23T03:38:20;96213.22;;;19.97;77.35
706;BME280;21234;48.690;9.016;2022-07-23T03:40:48;96214.66;;;19.94;77.60
706;BME280;21234;48.690;9.016;2022-07-23T03:43:14;96215.16;;;19.96;79.18
706;BME280;21234;48.690;9.016;2022-07-23T03:45:41;96208.31;;;19.94;76.08
706;BME280;21234;48.690;9.016;2022-07-23T03:48:08;96208.75;;;19.87;76.42
706;BME280;21234;48.690;9.016;2022-07-23T03:50:35;96210.38;;;19.88;76.35
706;BME280;21234;48.690;9.016;2022-07-23T03:53:02;96207.13;;;19.86;76.34
706;BME280;21234;48.690;9.016;2022-07-23T03:55:29;96221.66;;;19.78;77.10
706;BME280;21234;48.690;9.016;2022-07-23T03:57:57;96222.66;;;19.82;77.45
706;BME280;21234;48.690;9.016;2022-07-23T04:00:24;96226.06;;;19.79;77.20
706;BME280;21234;48.690;9.016;2022-07-23T04:02:51;96230.16;;;19.82;77.52
706;BME280;21234;48.690;9.016;2022-07-23T04:05:17;96225.59;;;19.86;76.54
706;BME280;21234;48.690;9.016;2022-07-23T04:07:45;96228.69;;;19.84;76.73
706;BME280;21234;48.690;9.016;2022-07-23T04:10:12;96224.50;;;19.87;74.87
706;BME280;21234;48.690;9.016;2022-07-23T04:12:38;96226.72;;;19.85;75.11
706;BME280;21234;48.690;9.016;2022-07-23T04:15:08;96229.69;;;19.88;77.15
706;BME280;21234;48.690;9.016;2022-07-23T04:17:35;96234.91;;;19.90;75.23
706;BME280;21234;48.690;9.016;2022-07-23T04:20:02;96234.41;;;19.88;76.63
706;BME280;21234;48.690;9.016;2022-07-23T04:22:29;96239.91;;;19.88;74.21
706;BME280;21234;48.690;9.016;2022-07-23T04:24:56;96237.16;;;19.88;74.44
706;BME280;21234;48.690;9.016;2022-07-23T04:27:22;96241.19;;;19.82;74.61
706;BME280;21234;48.690;9.016;2022-07-23T04:29:49;96236.44;;;19.82;75.24
706;BME280;21234;48.690;9.016;2022-07-23T04:32:17;96229.81;;;19.83;75.04
706;BME280;21234;48.690;9.016;2022-07-23T04:34:44;96233.69;;;19.82;74.36
706;BME280;21234;48.690;9.016;2022-07-23T04:37:11;96229.31;;;19.81;73.74
706;BME280;21234;48.690;9.016;2022-07-23T04:39:38;96238.28;;;19.87;73.48
706;BME280;21234;48.690;9.016;2022-07-23T04:42:04;96234.91;;;19.90;72.32
706;BME280;21234;48.690;9.016;2022-07-23T04:44:31;96235.00;;;19.98;72.50
706;BME280;21234;48.690;9.016;2022-07-23T04:46:58;96240.91;;;20.05;72.01
706;BME280;21234;48.690;9.016;2022-07-23T04:49:26;96233.31;;;20.11;71.99
706;BME280;21234;48.690;9.016;2022-07-23T04:51:53;96231.06;;;20.13;71.00
706;BME280;21234;48.690;9.016;2022-07-23T04:54:19;96231.44;;;20.20;71.76
706;BME280;21234;48.690;9.016;2022-07-23T04:56:46;96241.72;;;20.28;71.64
706;BME280;21234;48.690;9.016;2022-07-23T04:59:13;96237.22;;;20.32;70.48
706;BME280;21234;48.690;9.016;2022-07-23T05:01:40;96228.84;;;20.37;70.16
706;BME280;21234;48.690;9.016;2022-07-23T05:04:07;96224.97;;;20.38;69.79
706;BME280;21234;48.690;9.016;2022-07-23T05:06:35;96218.41;;;20.34;69.94
706;BME280;21234;48.690;9.016;2022-07-23T05:09:02;96227.94;;;20.28;70.58
706;BME280;21234;48.690;9.016;2022-07-23T05:11:28;96232.94;;;20.26;70.73
706;BME280;21234;48.690;9.016;2022-07-23T05:13:55;96231.81;;;20.27;70.13
706;BME280;21234;48.690;9.016;2022-07-23T05:16:22;96232.81;;;20.31;69.28
706;BME280;21234;48.690;9.016;2022-07-23T05:18:49;96237.53;;;20.31;68.96
706;BME280;21234;48.690;9.016;2022-07-23T05:21:15;96237.22;;;20.32;69.65
706;BME280;21234;48.690;9.016;2022-07-23T05:23:44;96238.84;;;20.33;69.46
706;BME280;21234;48.690;9.016;2022-07-23T05:26:10;96244.34;;;20.47;69.27
706;BME280;21234;48.690;9.016;2022-07-23T05:28:37;96240.56;;;20.65;68.72
706;BME280;21234;48.690;9.016;2022-07-23T05:31:04;96242.47;;;20.87;68.25
706;BME280;21234;48.690;9.016;2022-07-23T05:33:31;96245.03;;;21.06;67.03
706;BME280;21234;48.690;9.016;2022-07-23T05:36:00;96244.34;;;21.31;66.84
706;BME280;21234;48.690;9.016;2022-07-23T05:38:28;96246.19;;;21.44;66.99
706;BME280;21234;48.690;9.016;2022-07-23T05:40:56;96240.19;;;21.51;64.95
706;BME280;21234;48.690;9.016;2022-07-23T05:43:23;96251.56;;;21.41;65.22
706;BME280;21234;48.690;9.016;2022-07-23T05:45:49;96261.91;;;21.27;67.29
706;BME280;21234;48.690;9.016;2022-07-23T05:48:16;96261.81;;;21.18;67.90
706;BME280;21234;48.690;9.016;2022-07-23T05:50:43;96263.91;;;21.12;69.93
706;BME280;21234;48.690;9.016;2022-07-23T05:53:10;96263.25;;;21.07;68.78
706;BME280;21234;48.690;9.016;2022-07-23T05:55:37;96263.03;;;21.26;67.58
706;BME280;21234;48.690;9.016;2022-07-23T05:58:05;96275.59;;;21.32;66.99
706;BME280;21234;48.690;9.016;2022-07-23T06:00:32;96267.28;;;21.32;66.71
706;BME280;21234;48.690;9.016;2022-07-23T06:02:59;96251.69;;;21.36;66.81
706;BME280;21234;48.690;9.016;2022-07-23T06:05:26;96241.69;;;21.57;67.01
706;BME280;21234;48.690;9.016;2022-07-23T06:07:52;96242.69;;;21.78;65.59
706;BME280;21234;48.690;9.016;2022-07-23T06:10:19;96229.13;;;22.08;65.23
706;BME280;21234;48.690;9.016;2022-07-23T06:12:46;96230.59;;;22.40;64.52
706;BME280;21234;48.690;9.016;2022-07-23T06:15:14;96226.97;;;22.57;63.38
706;BME280;21234;48.690;9.016;2022-07-23T06:17:41;96224.00;;;22.79;62.76
706;BME280;21234;48.690;9.016;2022-07-23T06:20:09;96229.19;;;23.06;63.21
706;BME280;21234;48.690;9.016;2022-07-23T06:22:36;96241.97;;;23.28;60.98
706;BME280;21234;48.690;9.016;2022-07-23T06:25:03;96246.28;;;23.46;60.46
706;BME280;21234;48.690;9.016;2022-07-23T06:27:30;96248.78;;;23.39;60.92
706;BME280;21234;48.690;9.016;2022-07-23T06:29:57;96250.00;;;23.12;62.41
706;BME280;21234;48.690;9.016;2022-07-23T06:32:25;96257.69;;;23.07;63.13
706;BME280;21234;48.690;9.016;2022-07-23T06:34:52;96265.34;;;23.19;63.41
706;BME280;21234;48.690;9.016;2022-07-23T06:37:19;96275.50;;;23.06;63.73
706;BME280;21234;48.690;9.016;2022-07-23T06:39:46;96275.84;;;22.78;64.43
706;BME280;21234;48.690;9.016;2022-07-23T06:42:13;96277.66;;;22.66;64.26
706;BME280;21234;48.690;9.016;2022-07-23T06:44:40;96282.38;;;22.31;64.97
706;BME280;21234;48.690;9.016;2022-07-23T06:47:07;96285.78;;;22.19;67.04
706;BME280;21234;48.690;9.016;2022-07-23T06:49:37;96288.22;;;22.03;66.83
706;BME280;21234;48.690;9.016;2022-07-23T06:52:06;96285.72;;;21.93;66.92
706;BME280;21234;48.690;9.016;2022-07-23T06:54:33;96287.84;;;21.96;66.39
706;BME280;21234;48.690;9.016;2022-07-23T06:57:00;96300.53;;;21.97;68.00
706;BME280;21234;48.690;9.016;2022-07-23T06:59:27;96294.50;;;21.95;67.16
706;BME280;21234;48.690;9.016;2022-07-23T07:01:53;96309.63;;;21.89;67.75
706;BME280;21234;48.690;9.016;2022-07-23T07:04:20;96309.78;;;21.75;66.97
706;BME280;21234;48.690;9.016;2022-07-23T07:06:48;96303.56;;;21.70;65.66
706;BME280;21234;48.690;9.016;2022-07-23T07:09:15;96296.06;;;21.70;66.37
706;BME280;21234;48.690;9.016;2022-07-23T07:11:42;96288.41;;;21.67;66.74
706;BME280;21234;48.690;9.016;2022-07-23T07:14:09;96278.34;;;21.71;64.80
706;BME280;21234;48.690;9.016;2022-07-23T07:16:36;96283.97;;;22.06;65.42
706;BME280;21234;48.690;9.016;2022-07-23T07:19:02;96292.81;;;22.34;63.87
706;BME280;21234;48.690;9.016;2022-07-23T07:21:29;96300.13;;;22.30;64.04
706;BME280;21234;48.690;9.016;2022-07-23T07:23:57;96301.59;;;22.53;62.98
706;BME280;21234;48.690;9.016;2022-07-23T07:26:24;96295.75;;;22.63;62.58
706;BME280;21234;48.690;9.016;2022-07-23T07:28:51;96288.56;;;22.79;62.11
706;BME280;21234;48.690;9.016;2022-07-23T07:31:18;96296.75;;;23.40;60.41
706;BME280;21234;48.690;9.016;2022-07-23T07:33:44;96303.53;;;23.68;58.70
706;BME280;21234;48.690;9.016;2022-07-23T07:36:11;96311.59;;;23.91;59.32
706;BME280;21234;48.690;9.016;2022-07-23T07:38:38;96325.84;;;24.39;56.69
706;BME280;21234;48.690;9.016;2022-07-23T07:41:08;96321.50;;;24.71;55.00
706;BME280;21234;48.690;9.016;2022-07-23T07:43:36;96335.88;;;24.73;54.71
706;BME280;21234;48.690;9.016;2022-07-23T07:46:03;96334.66;;;25.04;52.96
706;BME280;21234;48.690;9.016;2022-07-23T07:48:30;96337.50;;;25.16;54.17
706;BME280;21234;48.690;9.016;2022-07-23T07:50:58;96337.38;;;24.92;53.21
706;BME280;21234;48.690;9.016;2022-07-23T07:53:24;96345.56;;;24.97;53.71
706;BME280;21234;48.690;9.016;2022-07-23T07:55:51;96356.03;;;24.91;54.45
706;BME280;21234;48.690;9.016;2022-07-23T07:58:20;96367.28;;;24.95;53.83
706;BME280;21234;48.690;9.016;2022-07-23T08:00:47;96369.91;;;24.70;54.94
706;BME280;21234;48.690;9.016;2022-07-23T08:03:15;96371.09;;;24.90;55.43
706;BME280;21234;48.690;9.016;2022-07-23T08:05:42;96369.47;;;24.89;52.76
706;BME280;21234;48.690;9.016;2022-07-23T08:08:09;96373.34;;;24.97;53.52
706;BME280;21234;48.690;9.016;2022-07-23T08:10:42;96371.41;;;24.89;53.34
706;BME280;21234;48.690;9.016;2022-07-23T08:13:15;96359.88;;;24.36;53.58
706;BME280;21234;48.690;9.016;2022-07-23T08:15:49;96357.81;;;24.25;52.17
706;BME280;21234;48.690;9.016;2022-07-23T08:18:18;96346.47;;;23.71;52.10
706;BME280;21234;48.690;9.016;2022-07-23T08:20:46;96358.88;;;23.65;54.62
706;BME280;21234;48.690;9.016;2022-07-23T08:23:16;96363.53;;;24.28;54.90
706;BME280;21234;48.690;9.016;2022-07-23T08:25:46;96353.47;;;24.65;53.23
706;BME280;21234;48.690;9.016;2022-07-23T08:28:14;96354.00;;;24.79;50.27
706;BME280;21234;48.690;9.016;2022-07-23T08:30:47;96363.75;;;24.86;51.26
706;BME280;21234;48.690;9.016;2022-07-23T08:33:20;96355.88;;;24.88;51.44
706;BME280;21234;48.690;9.016;2022-07-23T08:35:49;96350.78;;;24.48;49.67
706;BME280;21234;48.690;9.016;2022-07-23T08:38:20;96348.00;;;24.27;52.83
706;BME280;21234;48.690;9.016;2022-07-23T08:40:51;96359.47;;;24.47;51.74
706;BME280;21234;48.690;9.016;2022-07-23T08:43:20;96363.06;;;24.47;54.29
706;BME280;21234;48.690;9.016;2022-07-23T08:45:51;96359.06;;;24.77;52.74
706;BME280;21234;48.690;9.016;2022-07-23T08:48:23;96358.66;;;24.88;51.22
706;BME280;21234;48.690;9.016;2022-07-23T08:50:52;96358.75;;;24.58;52.87
706;BME280;21234;48.690;9.016;2022-07-23T08:53:21;96363.53;;;24.28;50.56
706;BME280;21234;48.690;9.016;2022-07-23T08:55:50;96367.31;;;24.15;53.13
706;BME280;21234;48.690;9.016;2022-07-23T08:58:18;96368.41;;;23.93;52.11
706;BME280;21234;48.690;9.016;2022-07-23T09:00:46;96368.78;;;24.12;53.46
706;BME280;21234;48.690;9.016;2022-07-23T09:03:16;96366.66;;;24.48;53.00
706;BME280;21234;48.690;9.016;2022-07-23T09:05:44;96362.00;;;25.23;52.22
706;BME280;21234;48.690;9.016;2022-07-23T09:08:12;96365.31;;;25.49;49.89
706;BME280;21234;48.690;9.016;2022-07-23T09:10:49;96362.16;;;25.84;48.34
706;BME280;21234;48.690;9.016;2022-07-23T09:13:32;96356.56;;;25.71;48.79
706;BME280;21234;48.690;9.016;2022-07-23T09:16:01;96361.50;;;25.54;48.58
706;BME280;21234;48.690;9.016;2022-07-23T09:18:31;96363.81;;;25.52;47.49
706;BME280;21234;48.690;9.016;2022-07-23T09:21:22;96361.41;;;25.62;49.94
706;BME280;21234;48.690;9.016;2022-07-23T09:23:53;96352.09;;;25.91;47.12
706;BME280;21234;48.690;9.016;2022-07-23T09:26:25;96345.00;;;25.94;48.02
706;BME280;21234;48.690;9.016;2022-07-23T09:28:57;96358.38;;;25.55;49.66
706;BME280;21234;48.690;9.016;2022-07-23T09:31:30;96350.78;;;26.01;48.62
706;BME280;21234;48.690;9.016;2022-07-23T09:34:08;96340.28;;;26.31;47.24
706;BME280;21234;48.690;9.016;2022-07-23T09:36:35;96344.25;;;26.70;47.50
706;BME280;21234;48.690;9.016;2022-07-23T09:39:03;96334.00;;;26.86;45.50
706;BME280;21234;48.690;9.016;2022-07-23T09:41:34;96335.97;;;26.86;44.99
706;BME280;21234;48.690;9.016;2022-07-23T09:44:08;96327.16;;;26.96;44.81
706;BME280;21234;48.690;9.016;2022-07-23T09:46:35;96332.78;;;27.12;45.93
706;BME280;21234;48.690;9.016;2022-07-23T09:49:15;96341.25;;;27.15;43.87
706;BME280;21234;48.690;9.016;2022-07-23T09:51:51;96334.31;;;26.97;49.10
706;BME280;21234;48.690;9.016;2022-07-23T09:54:28;96327.09;;;27.08;44.37
706;BME280;21234;48.690;9.016;2022-07-23T09:56:57;96336.25;;;26.68;49.28
706;BME280;21234;48.690;9.016;2022-07-23T09:59:27;96329.69;;;26.49;47.15
706;BME280;21234;48.690;9.016;2022-07-23T10:01:56;96329.75;;;26.64;48.52
706;BME280;21234;48.690;9.016;2022-07-23T10:04:28;96330.81;;;27.00;44.86
706;BME280;21234;48.690;9.016;2022-07-23T10:06:56;96336.69;;;26.70;46.49
706;BME280;21234;48.690;9.016;2022-07-23T10:09:26;96334.13;;;26.90;46.80
706;BME280;21234;48.690;9.016;2022-07-23T10:11:55;96337.25;;;27.28;43.81
706;BME280;21234;48.690;9.016;2022-07-23T10:14:26;96345.38;;;27.49;45.92
706;BME280;21234;48.690;9.016;2022-07-23T10:16:56;96339.41;;;27.79;44.72
706;BME280;21234;48.690;9.016;2022-07-23T10:19:22;96343.47;;;27.81;42.21
706;BME280;21234;48.690;9.016;2022-07-23T10:21:55;96346.94;;;27.62;43.45
706;BME280;21234;48.690;9.016;2022-07-23T10:24:28;96341.81;;;27.64;42.05
706;BME280;21234;48.690;9.016;2022-07-23T10:27:18;96339.78;;;27.61;44.76
706;BME280;21234;48.690;9.016;2022-07-23T10:29:51;96339.22;;;27.28;44.10
706;BME280;21234;48.690;9.016;2022-07-23T10:32:26;96335.00;;;27.06;44.58
706;BME280;21234;48.690;9.016;2022-07-23T10:35:09;96342.16;;;26.67;45.25
706;BME280;21234;48.690;9.016;2022-07-23T10:37:42;96342.81;;;26.48;46.73
706;BME280;21234;48.690;9.016;2022-07-23T10:40:13;96343.16;;;26.47;45.86
706;BME280;21234;48.690;9.016;2022-07-23T10:42:41;96340.25;;;26.19;45.54
706;BME280;21234;48.690;9.016;2022-07-23T10:45:29;96336.78;;;26.34;45.46
706;BME280;21234;48.690;9.016;2022-07-23T10:48:11;96329.59;;;26.85;44.99
706;BME280;21234;48.690;9.016;2022-07-23T10:50:39;96335.09;;;27.09;44.56
706;BME280;21234;48.690;9.016;2022-07-23T10:53:15;96328.06;;;27.43;46.84
706;BME280;21234;48.690;9.016;2022-07-23T10:55:50;96324.25;;;27.64;44.00
706;BME280;21234;48.690;9.016;2022-07-23T10:58:22;96327.16;;;27.99;42.80
706;BME280;21234;48.690;9.016;2022-07-23T11:00:50;96328.63;;;28.24;42.26
706;BME280;21234;48.690;9.016;2022-07-23T11:03:34;96321.53;;;28.46;40.99
706;BME280;21234;48.690;9.016;2022-07-23T11:06:04;96316.50;;;28.04;41.45
706;BME280;21234;48.690;9.016;2022-07-23T11:08:33;96326.78;;;28.16;41.54
706;BME280;21234;48.690;9.016;2022-07-23T11:11:10;96324.09;;;28.20;41.42
706;BME280;21234;48.690;9.016;2022-07-23T11:13:42;96332.22;;;28.25;38.93
706;BME280;21234;48.690;9.016;2022-07-23T11:16:22;96325.97;;;28.16;40.83
706;BME280;21234;48.690;9.016;2022-07-23T11:19:07;96324.88;;;27.57;43.66
706;BME280;21234;48.690;9.016;2022-07-23T11:21:42;96330.28;;;27.66;42.10
706;BME280;21234;48.690;9.016;2022-07-23T11:24:12;96330.75;;;27.40;42.67
706;BME280;21234;48.690;9.016;2022-07-23T11:26:48;96327.41;;;27.19;42.73
706;BME280;21234;48.690;9.016;2022-07-23T11:29:38;96321.84;;;27.34;43.96
706;BME280;21234;48.690;9.016;2022-07-23T11:32:06;96328.13;;;27.31;42.14
706;BME280;21234;48.690;9.016;2022-07-23T11:34:34;96325.00;;;27.05;43.03
706;BME280;21234;48.690;9.016;2022-07-23T11:37:03;96321.28;;;27.01;42.50
706;BME280;21234;48.690;9.016;2022-07-23T11:39:34;96315.25;;;26.99;42.71
706;BME280;21234;48.690;9.016;2022-07-23T11:42:03;96325.16;;;27.24;43.07
706;BME280;21234;48.690;9.016;2022-07-23T11:44:33;96315.97;;;27.67;40.43
706;BME280;21234;48.690;9.016;2022-07-23T11:47:01;96320.41;;;27.84;42.40
706;BME280;21234;48.690;9.016;2022-07-23T11:49:28;96313.72;;;28.04;40.98
706;BME280;21234;48.690;9.016;2022-07-23T11:52:05;96310.03;;;27.69;41.25
706;BME280;21234;48.690;9.016;2022-07-23T11:54:35;96319.84;;;27.35;42.42
706;BME280;21234;48.690;9.016;2022-07-23T11:57:03;96310.22;;;27.32;42.13
706;BME280;21234;48.690;9.016;2022-07-23T11:59:31;96308.72;;;27.51;42.78
706;BME280;21234;48.690;9.016;2022-07-23T12:01:59;96307.50;;;27.64;42.50
706;BME280;21234;48.690;9.016;2022-07-23T12:04:37;96321.75;;;27.90;43.21
706;BME280;21234;48.690;9.016;2022-07-23T12:07:04;96314.38;;;27.82;41.01
706;BME280;21234;48.690;9.016;2022-07-23T12:09:30;96306.78;;;27.98;41.99
706;BME280;21234;48.690;9.016;2022-07-23T12:12:00;96309.75;;;28.05;42.06
706;BME280;21234;48.690;9.016;2022-07-23T12:14:27;96303.06;;;28.10;41.26
706;BME280;21234;48.690;9.016;2022-07-23T12:17:09;96302.72;;;28.27;42.81
706;BME280;21234;48.690;9.016;2022-07-23T12:19:36;96308.00;;;28.48;41.77
706;BME280;21234;48.690;9.016;2022-07-23T12:22:03;96302.13;;;28.72;40.32
706;BME280;21234;48.690;9.016;2022-07-23T12:24:30;96304.47;;;28.51;40.25
706;BME280;21234;48.690;9.016;2022-07-23T12:27:11;96305.81;;;27.91;38.77
706;BME280;21234;48.690;9.016;2022-07-23T12:29:39;96307.31;;;27.72;40.59
706;BME280;21234;48.690;9.016;2022-07-23T12:32:19;96302.81;;;27.99;40.73
706;BME280;21234;48.690;9.016;2022-07-23T12:34:49;96295.94;;;28.28;40.53
706;BME280;21234;48.690;9.016;2022-07-23T12:37:30;96287.63;;;28.67;40.73
706;BME280;21234;48.690;9.016;2022-07-23T12:39:57;96298.19;;;28.93;41.83
706;BME280;21234;48.690;9.016;2022-07-23T12:42:25;96302.69;;;28.97;39.34
706;BME280;21234;48.690;9.016;2022-07-23T12:45:09;96307.00;;;28.75;39.88
706;BME280;21234;48.690;9.016;2022-07-23T12:48:00;96309.63;;;28.49;41.97
706;BME280;21234;48.690;9.016;2022-07-23T12:50:42;96321.03;;;28.25;41.16
706;BME280;21234;48.690;9.016;2022-07-23T12:53:13;96331.94;;;27.83;41.81
706;BME280;21234;48.690;9.016;2022-07-23T12:55:42;96318.13;;;27.74;43.08
706;BME280;21234;48.690;9.016;2022-07-23T12:58:13;96324.47;;;27.87;42.96
706;BME280;21234;48.690;9.016;2022-07-23T13:00:56;96319.88;;;28.26;41.71
706;BME280;21234;48.690;9.016;2022-07-23T13:03:24;96321.91;;;28.64;42.11
706;BME280;21234;48.690;9.016;2022-07-23T13:05:52;96321.81;;;28.76;41.74
706;BME280;21234;48.690;9.016;2022-07-23T13:08:19;96326.50;;;28.88;40.15
706;BME280;21234;48.690;9.016;2022-07-23T13:10:46;96327.69;;;28.71;41.07
706;BME280;21234;48.690;9.016;2022-07-23T13:13:15;96311.41;;;28.76;40.89
706;BME280;21234;48.690;9.016;2022-07-23T13:15:43;96312.28;;;28.26;39.93
706;BME280;21234;48.690;9.016;2022-07-23T13:18:09;96321.28;;;28.20;41.62
706;BME280;21234;48.690;9.016;2022-07-23T13:20:36;96318.84;;;28.18;41.45
706;BME280;21234;48.690;9.016;2022-07-23T13:23:04;96325.06;;;27.96;41.06
706;BME280;21234;48.690;9.016;2022-07-23T13:25:31;96321.44;;;27.48;41.36
706;BME280;21234;48.690;9.016;2022-07-23T13:27:57;96325.53;;;27.23;41.76
706;BME280;21234;48.690;9.016;2022-07-23T13:30:26;96322.47;;;27.00;42.93